Time;durP1;ratioP1;P1;durP2;ratioP2;P2;SDS_P1;SDS_P2;PMS_P1;PMS_P2;Temp;Humidity;BMP_temperature;BMP_pressure;BME280_temperature;BME280_humidity;BME280_pressure;Samples;Min_cycle;Max_cycle;Signal;HPM_P1;HPM_P2
2022/07/27 00:02:05;;;;;;;5.63;2.10;;;;;;;;;;21262781;27;20047;-56
2022/07/27 00:12:07;;;;;;;3.17;1.60;;;;;;;;;;21261029;27;20047;-57
2022/07/27 00:22:10;;;;;;;4.88;1.85;;;;;;;;;;21260855;27;20051;-55
2022/07/27 00:32:12;;;;;;;4.60;1.98;;;;;;;;;;21259263;27;20566;-56
2022/07/27 00:42:14;;;;;;;3.38;1.40;;;;;;;;;;21258431;27;20079;-54
2022/07/27 00:52:17;;;;;;;6.60;1.70;;;;;;;;;;21259074;27;20072;-56
2022/07/27 01:02:19;;;;;;;4.25;1.63;;;;;;;;;;21257667;27;20478;-55
2022/07/27 01:12:21;;;;;;;4.20;1.80;;;;;;;;;;21256697;27;20092;-54
2022/07/27 01:22:23;;;;;;;5.30;1.60;;;;;;;;;;21256300;27;20054;-56
2022/07/27 01:32:25;;;;;;;4.38;1.60;;;;;;;;;;21257579;27;20044;-56
2022/07/27 01:42:29;;;;;;;4.43;1.75;;;;;;;;;;21255795;27;20144;-56
2022/07/27 01:52:34;;;;;;;5.15;1.70;;;;;;;;;;21254102;27;20054;-54
2022/07/27 02:02:36;;;;;;;2.25;1.50;;;;;;;;;;21257999;27;20082;-56
2022/07/27 02:12:39;;;;;;;5.40;1.80;;;;;;;;;;21256355;27;20043;-57
2022/07/27 02:22:43;;;;;;;3.75;1.52;;;;;;;;;;21251654;27;20055;-54
2022/07/27 02:32:46;;;;;;;5.05;1.55;;;;;;;;;;21251228;27;20050;-54
2022/07/27 02:42:48;;;;;;;4.18;1.90;;;;;;;;;;21248695;27;20096;-57
2022/07/27 02:52:50;;;;;;;7.57;1.90;;;;;;;;;;21249309;27;20562;-57
2022/07/27 03:02:52;;;;;;;6.65;2.85;;;;;;;;;;21230850;27;20051;-55
2022/07/27 03:12:55;;;;;;;3.72;1.63;;;;;;;;;;21248353;28;20043;-54
2022/07/27 03:22:57;;;;;;;5.78;2.15;;;;;;;;;;21247174;28;20051;-57
2022/07/27 03:33:00;;;;;;;5.47;1.92;;;;;;;;;;21246718;28;20452;-55
2022/07/27 03:43:02;;;;;;;5.97;1.63;;;;;;;;;;21246149;28;20055;-55
2022/07/27 03:53:04;;;;;;;;;;;;;;;;;;21246279;28;20475;-55
2022/07/27 04:03:06;;;;;;;4.93;1.60;;;;;;;;;;21237276;27;20411;-56
2022/07/27 04:13:08;;;;;;;5.70;1.98;;;;;;;;;;21260398;27;20047;-57
2022/07/27 04:23:10;;;;;;;9.38;2.25;;;;;;;;;;21259729;27;20070;-57
2022/07/27 04:33:12;;;;;;;2.10;1.60;;;;;;;;;;21259352;27;20126;-54
2022/07/27 04:43:14;;;;;;;4.00;1.92;;;25.40;42.00;;;;;;21258122;27;20067;-57
2022/07/27 04:53:16;;;;;;;;;;;25.30;42.40;;;;;;21258817;27;20506;-56
2022/07/27 05:03:18;;;;;;;7.93;1.98;;;25.10;42.70;;;;;;21256466;27;20014;-55
2022/07/27 05:13:20;;;;;;;3.17;1.98;;;24.90;43.10;;;;;;21255027;27;20130;-55
2022/07/27 05:23:22;;;;;;;6.10;2.00;;;24.90;43.30;;;;;;21255164;27;20055;-57
2022/07/27 05:33:24;;;;;;;5.00;2.65;;;24.90;43.40;;;;;;21236250;27;20177;-55
2022/07/27 05:43:27;;;;;;;3.35;1.52;;;24.90;43.40;;;;;;21253105;27;20130;-56
2022/07/27 05:53:28;;;;;;;;;;;24.80;43.60;;;;;;21253960;27;20043;-54
2022/07/27 06:03:30;;;;;;;9.60;3.00;;;24.80;43.60;;;;;;21251605;27;19930;-55
2022/07/27 06:13:34;;;;;;;5.17;2.13;;;24.80;43.80;;;;;;21250888;27;20047;-56
2022/07/27 06:23:36;;;;;;;4.13;2.40;;;24.90;44.10;;;;;;21250352;27;20082;-55
2022/07/27 06:33:38;;;;;;;7.15;2.42;;;25.10;43.70;;;;;;21249931;27;20047;-55
2022/07/27 06:43:40;;;;;;;7.53;2.25;;;25.10;44.00;;;;;;21249150;27;20094;-56
2022/07/27 06:53:42;;;;;;;5.13;2.38;;;25.30;44.00;;;;;;21248778;27;20050;-55
2022/07/27 07:03:44;;;;;;;6.03;2.53;;;25.80;43.30;;;;;;21247811;27;20112;-56
2022/07/27 07:13:46;;;;;;;6.22;2.55;;;26.30;42.70;;;;;;21247163;28;20039;-55
2022/07/27 07:23:48;;;;;;;;;;;26.40;42.50;;;;;;21247575;28;20536;-55
2022/07/27 07:33:50;;;;;;;5.27;2.80;;;26.50;43.40;;;;;;21249907;27;19919;-56
2022/07/27 07:43:52;;;;;;;7.97;3.45;;;26.60;44.00;;;;;;21263093;27;20051;-55
2022/07/27 07:53:54;;;;;;;7.63;3.55;;;26.80;44.10;;;;;;21262821;27;20043;-55
2022/07/27 08:03:56;;;;;;;10.75;4.05;;;27.10;43.60;;;;;;21262528;27;20404;-54
2022/07/27 08:13:58;;;;;;;10.52;5.55;;;27.80;44.00;;;;;;21261826;27;20047;-55
2022/07/27 08:23:59;;;;;;;10.35;3.92;;;28.40;47.20;;;;;;21261336;27;20081;-53
2022/07/27 08:34:01;;;;;;;11.80;4.93;;;28.50;43.30;;;;;;21259110;27;20043;-56
2022/07/27 08:44:05;;;;;;;10.15;5.13;;;28.80;44.90;;;;;;21257758;27;20138;-56
2022/07/27 08:54:07;;;;;;;12.73;5.53;;;29.20;44.70;;;;;;21257343;27;20049;-56
2022/07/27 09:04:09;;;;;;;12.50;5.18;;;29.40;43.80;;;;;;21256685;27;20070;-56
2022/07/27 09:14:13;;;;;;;9.95;5.47;;;29.60;43.70;;;;;;21256061;27;20081;-56
2022/07/27 09:24:15;;;;;;;13.73;7.03;;;29.60;44.80;;;;;;21236688;27;20044;-55
2022/07/27 09:34:32;;;;;;;11.23;6.90;;;30.10;45.80;;;;;;21253977;27;20051;-56
2022/07/27 09:44:36;;;;;;;14.82;6.50;;;30.20;46.00;;;;;;21252571;27;20043;-54
2022/07/27 09:54:45;;;;;;;10.50;6.75;;;30.30;46.00;;;;;;21252379;27;20409;-57
2022/07/27 10:04:47;;;;;;;14.77;5.80;;;30.70;44.80;;;;;;21251609;27;20051;-55
2022/07/27 10:14:50;;;;;;;8.18;6.10;;;30.90;43.50;;;;;;21250655;27;20043;-55
2022/07/27 10:24:59;;;;;;;9.65;5.57;;;30.80;43.60;;;;;;21251108;27;20087;-55
2022/07/27 10:35:01;;;;;;;8.90;5.70;;;30.90;42.50;;;;;;21250175;27;20042;-55
2022/07/27 10:45:07;;;;;;;13.85;6.25;;;31.10;41.50;;;;;;21249129;27;20054;-55
2022/07/27 10:55:31;;;;;;;14.98;6.30;;;31.60;40.60;;;;;;21249402;27;20097;-55
2022/07/27 11:05:33;;;;;;;16.02;6.50;;;31.60;40.40;;;;;;21246941;27;20055;-55
2022/07/27 11:15:35;;;;;;;8.25;6.38;;;31.70;39.50;;;;;;21246566;27;20074;-56
2022/07/27 11:25:36;;;;;;;10.27;5.70;;;31.90;38.80;;;;;;21246519;28;20503;-55
2022/07/27 11:35:57;;;;;;;9.30;5.57;;;32.30;36.70;;;;;;21246512;28;20051;-56
2022/07/27 11:46:22;;;;;;;10.38;6.18;;;32.70;36.10;;;;;;21246273;28;20055;-57
2022/07/27 11:56:29;;;;;;;12.10;4.65;;;32.90;35.50;;;;;;21246654;28;20047;-55
2022/07/27 12:06:32;;;;;;;6.28;4.10;;;33.00;33.30;;;;;;21246460;28;20556;-54
2022/07/27 12:16:35;;;;;;;5.82;3.33;;;33.40;30.80;;;;;;21246022;28;20039;-57
2022/07/27 12:26:36;;;;;;;4.40;3.15;;;33.40;29.80;;;;;;21258128;27;20050;-56
2022/07/27 12:36:40;;;;;;;5.47;3.13;;;33.40;28.80;;;;;;21260409;27;20097;-56
2022/07/27 12:46:53;;;;;;;5.28;2.90;;;33.50;27.30;;;;;;21257499;27;20138;-56
2022/07/27 12:56:55;;;;;;;3.75;2.60;;;33.60;27.80;;;;;;21256697;27;20053;-55
2022/07/27 13:06:56;;;;;;;7.38;3.08;;;33.40;27.40;;;;;;21256447;27;20138;-57
2022/07/27 13:16:58;;;;;;;5.28;2.90;;;33.80;27.30;;;;;;21255178;27;20058;-55
2022/07/27 13:27:00;;;;;;;4.80;3.28;;;34.10;26.30;;;;;;21254214;27;20093;-56
2022/07/27 13:37:04;;;;;;;6.63;3.38;;;34.10;26.50;;;;;;21226668;27;20091;-58
2022/07/27 13:47:07;;;;;;;3.85;2.40;;;34.20;25.20;;;;;;21252587;27;20150;-56
2022/07/27 13:57:08;;;;;;;5.25;2.88;;;34.30;24.60;;;;;;21252285;27;20047;-57
2022/07/27 14:07:10;;;;;;;6.30;2.38;;;34.50;24.70;;;;;;21251212;27;20142;-57
2022/07/27 14:17:12;;;;;;;5.70;2.50;;;34.60;24.40;;;;;;21250542;27;20046;-56
2022/07/27 14:27:14;;;;;;;4.78;2.47;;;34.60;24.00;;;;;;21249725;27;20078;-56
2022/07/27 14:37:17;;;;;;;4.10;2.33;;;34.90;23.30;;;;;;21248855;27;20050;-58
2022/07/27 14:47:19;;;;;;;6.43;2.10;;;34.90;22.00;;;;;;21248343;27;20414;-53
2022/07/27 14:57:21;;;;;;;5.30;2.35;;;34.90;22.10;;;;;;21248023;27;20051;-57
2022/07/27 15:07:23;;;;;;;6.60;2.20;;;35.20;21.50;;;;;;21248420;27;20093;-56
2022/07/27 15:17:25;;;;;;;4.40;2.67;;;35.00;22.10;;;;;;21248093;28;20169;-56
2022/07/27 15:27:27;;;;;;;5.93;2.67;;;35.10;22.90;;;;;;21247111;28;20054;-57
2022/07/27 15:37:28;;;;;;;8.63;3.28;;;35.10;22.70;;;;;;21247290;28;20411;-57
2022/07/27 15:47:30;;;;;;;7.72;3.70;;;35.00;23.50;;;;;;21246644;28;20089;-55
2022/07/27 15:57:31;;;;;;;5.43;3.70;;;35.10;22.40;;;;;;21254120;27;20435;-60
2022/07/27 16:07:33;;;;;;;4.15;2.15;;;35.20;22.30;;;;;;21262472;27;20577;-55
2022/07/27 16:17:34;;;;;;;4.90;2.28;;;35.30;21.70;;;;;;21260256;27;20075;-56
2022/07/27 16:27:37;;;;;;;7.63;5.00;;;35.30;22.30;;;;;;21260851;27;20471;-58
2022/07/27 16:37:39;;;;;;;6.22;2.80;;;35.30;22.30;;;;;;21259264;27;20039;-56
2022/07/27 16:47:40;;;;;;;6.43;2.83;;;35.30;21.90;;;;;;21257399;27;20059;-55
2022/07/27 16:57:42;;;;;;;5.57;2.50;;;35.20;21.60;;;;;;21257497;27;20404;-56
2022/07/27 17:07:44;;;;;;;7.47;2.42;;;35.20;20.50;;;;;;21255359;27;20047;-57
2022/07/27 17:17:46;;;;;;;4.63;1.90;;;35.20;20.60;;;;;;21256427;27;20406;-61
2022/07/27 17:27:48;;;;;;;3.97;1.60;;;34.90;20.40;;;;;;21255068;27;20090;-57
2022/07/27 17:37:50;;;;;;;3.40;2.35;;;34.80;20.10;;;;;;21253797;27;20043;-63
2022/07/27 17:47:51;;;;;;;3.50;2.65;;;34.70;22.20;;;;;;21253781;27;20051;-60
2022/07/27 17:57:53;;;;;;;6.18;3.05;;;34.80;23.70;;;;;;21253663;27;20043;-57
2022/07/27 18:07:55;;;;;;;4.38;2.75;;;34.50;24.00;;;;;;21252200;27;20411;-60
2022/07/27 18:17:57;;;;;;;3.35;2.70;;;34.60;24.80;;;;;;21249419;27;20126;-59
2022/07/27 18:27:58;;;;;;;6.05;3.13;;;34.60;24.50;;;;;;21251345;27;20495;-59
2022/07/27 18:38:00;;;;;;;5.20;3.00;;;34.50;25.30;;;;;;21249710;27;20111;-58
2022/07/27 18:48:03;;;;;;;6.35;3.10;;;34.30;25.80;;;;;;21250663;27;20054;-61
2022/07/27 18:58:05;;;;;;;5.63;3.30;;;34.10;25.80;;;;;;21247543;27;20071;-57
2022/07/27 19:08:10;;;;;;;6.38;3.00;;;34.00;25.90;;;;;;21246698;27;20043;-56
2022/07/27 19:18:11;;;;;;;7.00;2.85;;;34.00;25.80;;;;;;21247315;28;20088;-55
2022/07/27 19:28:15;;;;;;;6.10;3.20;;;33.80;25.80;;;;;;21246634;27;20059;-54
2022/07/27 19:38:17;;;;;;;6.68;3.00;;;33.60;26.10;;;;;;21263311;27;20064;-57
2022/07/27 19:48:20;;;;;;;4.18;2.53;;;33.40;26.30;;;;;;21262870;27;20142;-55
2022/07/27 19:58:22;;;;;;;5.95;2.80;;;33.30;26.30;;;;;;21262007;27;20478;-54
2022/07/27 20:08:23;;;;;;;4.65;3.03;;;33.10;26.60;;;;;;21261695;27;20055;-57
2022/07/27 20:18:29;;;;;;;21.98;11.48;;;33.00;27.00;;;;;;21261350;27;20071;-56
2022/07/27 20:28:31;;;;;;;10.38;4.20;;;32.80;27.40;;;;;;21241398;27;20054;-54
2022/07/27 20:38:32;;;;;;;7.38;3.03;;;32.70;27.60;;;;;;21258852;27;20054;-55
2022/07/27 20:48:34;;;;;;;7.07;2.88;;;32.40;27.20;;;;;;21258411;27;20450;-55
2022/07/27 20:58:36;;;;;;;6.93;2.65;;;32.10;27.00;;;;;;21258170;27;20058;-56
2022/07/27 21:08:38;;;;;;;5.47;3.00;;;31.90;27.10;;;;;;21257109;27;20051;-57
2022/07/27 21:18:39;;;;;;;4.78;2.95;;;31.60;26.70;;;;;;21256478;27;20058;-59
2022/07/27 21:28:41;;;;;;;14.90;10.80;;;31.60;26.70;;;;;;21255732;27;20063;-56
2022/07/27 21:38:43;;;;;;;10.80;6.32;;;31.50;26.20;;;;;;21255509;27;20051;-58
2022/07/27 21:48:45;;;;;;;4.32;2.30;;;31.30;26.30;;;;;;21253721;27;20047;-55
2022/07/27 21:58:47;;;;;;;4.13;1.77;;;31.20;25.60;;;;;;21253006;27;20047;-56
2022/07/27 22:08:49;;;;;;;6.47;3.88;;;31.10;25.20;;;;;;21252052;27;20100;-56
2022/07/27 22:18:51;;;;;;;4.70;2.33;;;31.10;25.70;;;;;;21251547;27;20128;-58
2022/07/27 22:28:53;;;;;;;5.55;3.03;;;31.00;25.30;;;;;;21250331;27;20064;-56
2022/07/27 22:38:55;;;;;;;3.83;2.70;;;30.80;25.30;;;;;;21250620;27;20092;-56
2022/07/27 22:48:56;;;;;;;5.43;3.63;;;30.70;25.30;;;;;;21249859;27;20548;-56
2022/07/27 22:58:58;;;;;;;5.57;3.97;;;30.60;25.20;;;;;;21249227;27;20043;-57
2022/07/27 23:09:00;;;;;;;6.63;2.60;;;30.50;25.30;;;;;;21246868;27;20058;-57
2022/07/27 23:19:01;;;;;;;4.25;2.08;;;30.50;25.00;;;;;;21247857;28;20092;-57
2022/07/27 23:29:03;;;;;;;2.42;1.88;;;30.50;24.80;;;;;;21247620;28;20058;-58
2022/07/27 23:39:05;;;;;;;5.30;2.90;;;30.40;24.60;;;;;;21246405;28;20056;-57
2022/07/27 23:49:06;;;;;;;4.93;3.83;;;30.30;24.30;;;;;;21245987;28;20058;-57
2022/07/27 23:59:08;;;;;;;11.55;5.65;;;30.20;24.50;;;;;;21246110;28;20475;-57
